createdAt,value
2018-12-27T00:00:04.973Z,85.28
2018-12-27T00:01:04.952Z,85.28
2018-12-27T00:02:04.939Z,85.28
2018-12-27T00:03:04.924Z,85.24
2018-12-27T00:04:04.922Z,85.28
2018-12-27T00:05:04.901Z,85.28
2018-12-27T00:06:04.892Z,85.38
2018-12-27T00:07:04.880Z,85.80
2018-12-27T00:08:05.735Z,85.38
2018-12-27T00:09:04.859Z,85.83
2018-12-27T00:10:04.848Z,85.94
2018-12-27T00:11:04.838Z,85.59
2018-12-27T00:12:04.826Z,85.59
2018-12-27T00:13:04.814Z,85.38
2018-12-27T00:14:04.805Z,85.59
2018-12-27T00:15:04.793Z,85.18
2018-12-27T00:16:04.783Z,85.80
2018-12-27T00:17:04.772Z,86.00
2018-12-27T00:18:04.760Z,85.38
2018-12-27T00:19:04.751Z,85.69
2018-12-27T00:20:04.750Z,85.59
2018-12-27T00:21:04.752Z,85.43
2018-12-27T00:22:04.756Z,84.97
2018-12-27T00:23:04.708Z,85.18
2018-12-27T00:24:04.701Z,85.08
2018-12-27T00:25:04.704Z,85.08
2018-12-27T00:26:04.706Z,84.97
2018-12-27T00:27:04.709Z,84.77
2018-12-27T00:28:04.649Z,84.97
2018-12-27T00:29:04.640Z,85.80
2018-12-27T00:30:04.629Z,84.77
2018-12-27T00:31:04.618Z,85.08
2018-12-27T00:32:04.619Z,84.77
2018-12-27T00:33:04.597Z,84.97
2018-12-27T00:34:04.588Z,85.63
2018-12-27T00:35:04.573Z,85.28
2018-12-27T00:36:04.561Z,85.38
2018-12-27T00:37:04.556Z,85.28
2018-12-27T00:38:04.549Z,85.28
2018-12-27T00:39:04.537Z,85.38
2018-12-27T00:40:04.521Z,85.63
2018-12-27T00:41:04.507Z,85.32
2018-12-27T00:42:04.495Z,85.32
2018-12-27T00:43:04.486Z,85.43
2018-12-27T00:44:04.474Z,85.28
2018-12-27T00:45:04.466Z,85.49
2018-12-27T00:46:04.455Z,84.87
2018-12-27T00:47:04.444Z,85.18
2018-12-27T00:48:04.438Z,84.87
2018-12-27T00:49:04.419Z,84.77
2018-12-27T00:50:04.408Z,85.63
2018-12-27T00:51:04.407Z,85.53
2018-12-27T00:52:04.434Z,86.15
2018-12-27T00:53:04.377Z,85.63
2018-12-27T00:54:04.367Z,85.53
2018-12-27T00:55:04.353Z,85.83
2018-12-27T00:56:04.345Z,85.83
2018-12-27T00:57:04.332Z,86.04
2018-12-27T00:58:04.322Z,86.04
2018-12-27T00:59:04.310Z,86.04
2018-12-27T01:00:04.298Z,86.35
2018-12-27T01:01:04.288Z,86.49
2018-12-27T01:02:04.277Z,86.24
2018-12-27T01:03:11.019Z,86.45
2018-12-27T01:04:28.735Z,86.45
2018-12-27T01:05:28.721Z,86.45
2018-12-27T01:06:28.711Z,86.76
2018-12-27T01:07:28.707Z,86.56
2018-12-27T01:08:28.696Z,86.80
2018-12-27T01:09:28.688Z,85.94
2018-12-27T01:10:28.670Z,85.83
2018-12-27T01:11:28.656Z,85.63
2018-12-27T01:12:28.645Z,86.04
2018-12-27T01:13:28.637Z,85.63
2018-12-27T01:14:28.622Z,85.83
2018-12-27T01:15:28.614Z,85.94
2018-12-27T01:16:28.601Z,85.22
2018-12-27T01:17:28.589Z,85.49
2018-12-27T01:18:28.617Z,85.63
2018-12-27T01:19:28.567Z,85.32
2018-12-27T01:20:28.556Z,85.53
2018-12-27T01:21:28.547Z,85.43
2018-12-27T01:22:28.533Z,85.11
2018-12-27T01:23:28.522Z,85.83
2018-12-27T01:24:28.511Z,85.67
2018-12-27T01:25:28.500Z,85.63
2018-12-27T01:26:28.489Z,86.24
2018-12-27T01:27:28.478Z,86.08
2018-12-27T01:28:28.475Z,86.35
2018-12-27T01:29:28.459Z,86.49
2018-12-27T01:30:28.445Z,86.29
2018-12-27T01:31:28.436Z,85.94
2018-12-27T01:32:28.427Z,86.04
2018-12-27T01:33:28.418Z,86.08
2018-12-27T01:34:28.404Z,86.15
2018-12-27T01:35:28.390Z,85.63
2018-12-27T01:36:28.380Z,85.77
2018-12-27T01:37:28.376Z,85.67
2018-12-27T01:38:28.356Z,86.04
2018-12-27T01:39:28.346Z,85.83
2018-12-27T01:40:28.334Z,85.36
2018-12-27T01:41:28.328Z,85.94
2018-12-27T01:42:28.312Z,85.98
2018-12-27T01:43:28.301Z,86.56
2018-12-27T01:44:28.294Z,86.04
2018-12-27T01:45:28.283Z,86.24
2018-12-27T01:46:28.269Z,85.83
2018-12-27T01:47:28.258Z,86.24
2018-12-27T01:48:28.251Z,86.45
2018-12-27T01:49:28.237Z,86.24
2018-12-27T01:50:28.225Z,85.77
2018-12-27T01:51:28.215Z,86.56
2018-12-27T01:52:28.204Z,85.94
2018-12-27T01:53:28.192Z,85.83
2018-12-27T01:54:28.181Z,85.94
2018-12-27T01:55:28.169Z,85.63
2018-12-27T01:56:28.162Z,85.73
2018-12-27T01:57:28.148Z,85.63
2018-12-27T01:58:28.140Z,85.88
2018-12-27T01:59:28.124Z,86.08
2018-12-27T02:00:28.117Z,86.15
2018-12-27T02:01:28.103Z,86.04
2018-12-27T02:02:28.091Z,85.88
2018-12-27T02:03:28.081Z,86.18
2018-12-27T02:04:28.068Z,86.04
2018-12-27T02:05:28.057Z,85.32
2018-12-27T02:06:28.049Z,85.53
2018-12-27T02:07:28.035Z,85.43
2018-12-27T02:08:28.025Z,85.63
2018-12-27T02:09:28.030Z,85.83
2018-12-27T02:10:28.008Z,85.22
2018-12-27T02:11:28.000Z,85.53
2018-12-27T02:12:28.013Z,85.46
2018-12-27T02:13:27.973Z,86.15
2018-12-27T02:14:27.962Z,85.94
2018-12-27T02:15:27.951Z,85.57
2018-12-27T02:16:27.934Z,85.11
2018-12-27T02:17:27.925Z,85.32
2018-12-27T02:18:27.912Z,85.32
2018-12-27T02:19:27.906Z,85.32
2018-12-27T02:20:27.894Z,86.08
2018-12-27T02:21:27.879Z,85.77
2018-12-27T02:22:27.868Z,85.77
2018-12-27T02:23:27.857Z,85.83
2018-12-27T02:24:27.853Z,86.04
2018-12-27T02:25:27.840Z,85.53
2018-12-27T02:26:27.828Z,85.43
2018-12-27T02:27:27.812Z,85.83
2018-12-27T02:28:27.802Z,84.71
2018-12-27T02:29:27.791Z,84.91
2018-12-27T02:30:27.784Z,84.60
2018-12-27T02:31:27.768Z,84.50
2018-12-27T02:32:27.798Z,85.01
2018-12-27T02:33:35.065Z,84.71
2018-12-27T02:34:52.215Z,83.99
2018-12-27T02:35:52.206Z,84.50
2018-12-27T02:36:52.200Z,84.50
2018-12-27T02:37:52.189Z,84.71
2018-12-27T02:38:52.173Z,85.01
2018-12-27T02:39:52.162Z,84.81
2018-12-27T02:40:52.161Z,84.60
2018-12-27T02:41:52.143Z,84.19
2018-12-27T02:42:52.134Z,83.88
2018-12-27T02:43:52.121Z,83.88
2018-12-27T02:44:52.108Z,83.47
2018-12-27T02:45:52.103Z,83.67
2018-12-27T02:46:52.088Z,83.47
2018-12-27T02:47:52.075Z,83.27
2018-12-27T02:48:52.064Z,83.06
2018-12-27T02:49:52.054Z,83.16
2018-12-27T02:50:52.042Z,83.16
2018-12-27T02:51:52.032Z,82.95
2018-12-27T02:52:52.025Z,83.57
2018-12-27T02:53:52.009Z,83.47
2018-12-27T02:54:52.006Z,82.75
2018-12-27T02:55:51.986Z,83.47
2018-12-27T02:56:51.976Z,83.47
2018-12-27T02:57:51.964Z,83.06
2018-12-27T02:58:51.953Z,83.88
2018-12-27T02:59:51.944Z,84.33
2018-12-27T03:00:51.933Z,84.19
2018-12-27T03:01:51.921Z,83.78
2018-12-27T03:02:51.911Z,83.92
2018-12-27T03:03:51.899Z,83.67
2018-12-27T03:04:51.889Z,83.27
2018-12-27T03:05:51.879Z,83.67
2018-12-27T03:06:51.864Z,83.51
2018-12-27T03:07:51.852Z,83.72
2018-12-27T03:08:51.844Z,83.82
2018-12-27T03:09:51.833Z,83.51
2018-12-27T03:10:51.826Z,83.57
2018-12-27T03:11:51.809Z,83.47
2018-12-27T03:12:51.798Z,83.41
2018-12-27T03:13:51.786Z,83.51
2018-12-27T03:14:51.775Z,83.57
2018-12-27T03:15:51.765Z,83.47
2018-12-27T03:16:51.763Z,83.88
2018-12-27T03:17:51.747Z,83.51
2018-12-27T03:18:51.735Z,83.88
2018-12-27T03:19:51.720Z,84.23
2018-12-27T03:20:51.711Z,83.67
2018-12-27T03:21:51.710Z,83.88
2018-12-27T03:22:51.687Z,83.47
2018-12-27T03:23:51.676Z,83.67
2018-12-27T03:24:51.665Z,83.82
2018-12-27T03:25:51.669Z,83.47
2018-12-27T03:26:51.646Z,83.51
2018-12-27T03:27:51.636Z,82.95
2018-12-27T03:28:51.621Z,83.41
2018-12-27T03:29:51.610Z,83.51
2018-12-27T03:30:51.607Z,83.72
2018-12-27T03:31:51.590Z,83.41
2018-12-27T03:32:51.603Z,83.72
2018-12-27T03:33:52.791Z,83.00
2018-12-27T03:34:51.559Z,83.00
2018-12-27T03:35:51.543Z,82.79
2018-12-27T03:36:51.531Z,83.82
2018-12-27T03:37:51.523Z,83.92
2018-12-27T03:38:51.509Z,83.51
2018-12-27T03:39:51.503Z,83.51
2018-12-27T03:40:51.487Z,83.61
2018-12-27T03:41:51.478Z,84.02
2018-12-27T03:42:51.467Z,83.44
2018-12-27T03:43:51.459Z,83.51
2018-12-27T03:44:51.451Z,83.72
2018-12-27T03:45:51.434Z,83.20
2018-12-27T03:46:51.420Z,83.30
2018-12-27T03:47:51.409Z,83.30
2018-12-27T03:48:51.398Z,83.41
2018-12-27T03:49:51.384Z,83.00
2018-12-27T03:50:51.373Z,82.79
2018-12-27T03:51:51.366Z,82.89
2018-12-27T03:52:51.349Z,83.30
2018-12-27T03:53:51.342Z,83.30
2018-12-27T03:54:51.336Z,82.28
2018-12-27T03:55:51.320Z,82.38
2018-12-27T03:56:51.307Z,82.28
2018-12-27T03:57:51.298Z,83.51
2018-12-27T03:58:51.285Z,83.51
2018-12-27T03:59:51.277Z,83.10
2018-12-27T04:00:51.266Z,83.30
2018-12-27T04:01:51.252Z,83.30
2018-12-27T04:02:51.245Z,83.41
2018-12-27T04:03:51.229Z,82.89
2018-12-27T04:04:51.216Z,83.41
2018-12-27T04:05:51.209Z,83.34
2018-12-27T04:06:51.196Z,83.00
2018-12-27T04:07:51.182Z,83.82
2018-12-27T04:08:51.179Z,83.24
2018-12-27T04:09:51.173Z,83.00
2018-12-27T04:10:51.213Z,82.93
2018-12-27T04:11:51.138Z,83.82
2018-12-27T04:12:51.128Z,83.30
2018-12-27T04:13:51.119Z,83.34
2018-12-27T04:14:51.112Z,83.20
2018-12-27T04:15:51.092Z,83.30
2018-12-27T04:16:51.087Z,83.24
2018-12-27T04:17:51.071Z,83.51
2018-12-27T04:18:51.067Z,83.10
2018-12-27T04:19:51.046Z,83.34
2018-12-27T04:20:51.091Z,83.14
2018-12-27T04:21:51.032Z,83.00
2018-12-27T04:22:51.012Z,83.24
2018-12-27T04:23:51.005Z,82.93
2018-12-27T04:24:50.996Z,83.34
2018-12-27T04:25:50.980Z,83.75
2018-12-27T04:26:50.974Z,83.03
2018-12-27T04:27:50.956Z,83.65
2018-12-27T04:28:50.950Z,83.34
2018-12-27T04:29:50.937Z,83.55
2018-12-27T04:30:50.923Z,83.55
2018-12-27T04:31:50.912Z,83.51
2018-12-27T04:32:50.903Z,83.20
2018-12-27T04:33:50.889Z,83.24
2018-12-27T04:34:50.879Z,83.34
2018-12-27T04:35:50.867Z,83.24
2018-12-27T04:36:50.855Z,83.34
2018-12-27T04:37:50.843Z,83.20
2018-12-27T04:38:50.835Z,83.51
2018-12-27T04:39:50.825Z,83.65
2018-12-27T04:40:50.811Z,83.65
2018-12-27T04:41:50.799Z,83.65
2018-12-27T04:42:50.787Z,83.51
2018-12-27T04:43:50.777Z,83.34
2018-12-27T04:44:50.765Z,83.10
2018-12-27T04:45:50.753Z,83.14
2018-12-27T04:46:50.744Z,83.44
2018-12-27T04:47:50.736Z,83.14
2018-12-27T04:48:50.719Z,83.14
2018-12-27T04:49:50.714Z,83.75
2018-12-27T04:50:50.703Z,83.03
2018-12-27T04:51:50.692Z,82.21
2018-12-27T04:52:50.677Z,83.03
2018-12-27T04:53:50.668Z,82.89
2018-12-27T04:54:50.668Z,83.44
2018-12-27T04:55:50.678Z,83.03
2018-12-27T04:56:50.682Z,82.93
2018-12-27T04:57:50.624Z,82.69
2018-12-27T04:58:50.622Z,82.42
2018-12-27T04:59:50.621Z,82.69
2018-12-27T05:00:50.624Z,83.14
2018-12-27T05:01:50.572Z,83.03
2018-12-27T05:02:50.565Z,82.93
2018-12-27T05:03:50.548Z,83.03
2018-12-27T05:04:50.537Z,82.42
2018-12-27T05:05:50.533Z,82.42
2018-12-27T05:06:50.519Z,83.44
2018-12-27T05:07:50.504Z,83.14
2018-12-27T05:08:50.541Z,83.34
2018-12-27T05:09:50.480Z,83.03
2018-12-27T05:10:50.473Z,83.55
2018-12-27T05:11:50.459Z,83.44
2018-12-27T05:12:50.450Z,83.38
2018-12-27T05:13:50.434Z,82.83
2018-12-27T05:14:50.425Z,82.87
2018-12-27T05:15:50.421Z,83.07
2018-12-27T05:16:50.407Z,82.83
2018-12-27T05:17:50.391Z,82.42
2018-12-27T05:18:50.395Z,82.11
2018-12-27T05:19:50.366Z,82.11
2018-12-27T05:20:50.361Z,82.31
2018-12-27T05:21:50.355Z,82.52
2018-12-27T05:22:50.338Z,82.11
2018-12-27T05:23:50.322Z,82.11
2018-12-27T05:24:50.310Z,81.59
2018-12-27T05:25:50.298Z,82.00
2018-12-27T05:26:50.287Z,81.59
2018-12-27T05:27:50.277Z,81.49
2018-12-27T05:28:50.264Z,80.87
2018-12-27T05:29:50.258Z,80.98
2018-12-27T05:30:50.241Z,81.08
2018-12-27T05:31:51.733Z,80.94
2018-12-27T05:32:50.218Z,81.18
2018-12-27T05:33:50.207Z,81.18
2018-12-27T05:34:50.196Z,79.54
2018-12-27T05:35:50.185Z,79.64
2018-12-27T05:36:50.181Z,79.68
2018-12-27T05:37:50.160Z,79.78
2018-12-27T05:38:50.149Z,79.47
2018-12-27T05:39:50.146Z,80.19
2018-12-27T05:40:50.130Z,79.57
2018-12-27T05:41:50.120Z,80.19
2018-12-27T05:42:50.105Z,79.98
2018-12-27T05:43:50.098Z,79.68
2018-12-27T05:44:50.081Z,79.68
2018-12-27T05:45:50.071Z,79.37
2018-12-27T05:46:50.059Z,79.57
2018-12-27T05:47:50.050Z,79.37
2018-12-27T05:48:50.047Z,79.19
2018-12-27T05:49:50.025Z,79.98
2018-12-27T05:50:50.013Z,80.12
2018-12-27T05:51:50.004Z,79.71
2018-12-27T05:52:49.990Z,79.92
2018-12-27T05:53:49.979Z,79.88
2018-12-27T05:54:49.971Z,79.37
2018-12-27T05:55:49.957Z,80.29
2018-12-27T05:56:49.947Z,78.54
2018-12-27T05:57:49.939Z,78.64
2018-12-27T05:58:49.922Z,78.24
2018-12-27T05:59:49.918Z,78.85
2018-12-27T06:00:49.906Z,78.54
2018-12-27T06:01:49.889Z,78.64
2018-12-27T06:02:49.878Z,78.96
2018-12-27T06:03:49.869Z,78.96
2018-12-27T06:04:49.854Z,79.98
2018-12-27T06:05:49.847Z,80.19
2018-12-27T06:06:49.832Z,79.57
2018-12-27T06:07:49.823Z,79.88
2018-12-27T06:08:49.810Z,78.85
2018-12-27T06:09:49.801Z,78.85
2018-12-27T06:10:49.788Z,78.64
2018-12-27T06:11:49.775Z,79.30
2018-12-27T06:12:49.763Z,78.85
2018-12-27T06:13:49.753Z,80.29
2018-12-27T06:14:49.742Z,78.85
2018-12-27T06:15:49.728Z,78.85
2018-12-27T06:16:49.719Z,78.85
2018-12-27T06:17:49.710Z,78.64
2018-12-27T06:18:49.702Z,80.12
2018-12-27T06:19:49.685Z,79.78
2018-12-27T06:20:49.673Z,79.57
2018-12-27T06:21:49.665Z,79.61
2018-12-27T06:22:49.650Z,79.47
2018-12-27T06:23:49.640Z,79.37
2018-12-27T06:24:49.636Z,80.23
2018-12-27T06:25:49.619Z,80.02
2018-12-27T06:26:49.607Z,79.92
2018-12-27T06:27:49.594Z,79.19
2018-12-27T06:28:49.585Z,79.06
2018-12-27T06:29:49.577Z,78.27
2018-12-27T06:30:49.560Z,78.47
2018-12-27T06:31:49.548Z,78.58
2018-12-27T06:32:49.543Z,78.89
2018-12-27T06:33:49.528Z,78.89
2018-12-27T06:34:49.512Z,78.99
2018-12-27T06:35:49.504Z,79.19
2018-12-27T06:36:49.492Z,78.27
2018-12-27T06:37:49.481Z,77.86
2018-12-27T06:38:49.469Z,77.65
2018-12-27T06:39:49.457Z,77.34
2018-12-27T06:40:49.444Z,77.86
2018-12-27T06:41:49.436Z,77.65
2018-12-27T06:42:49.424Z,77.75
2018-12-27T06:43:49.410Z,77.55
2018-12-27T06:44:49.401Z,77.24
2018-12-27T06:45:49.388Z,78.51
2018-12-27T06:46:49.377Z,77.79
2018-12-27T06:47:49.365Z,77.45
2018-12-27T06:48:49.355Z,77.38
2018-12-27T06:49:49.346Z,77.45
2018-12-27T06:50:49.337Z,76.86
2018-12-27T06:51:49.325Z,76.76
2018-12-27T06:52:49.309Z,77.48
2018-12-27T06:53:49.299Z,76.83
2018-12-27T06:54:49.289Z,76.97
2018-12-27T06:55:49.276Z,76.04
2018-12-27T06:56:49.267Z,76.55
2018-12-27T06:57:49.257Z,75.90
2018-12-27T06:58:49.242Z,75.39
2018-12-27T06:59:49.232Z,75.80
2018-12-27T07:00:49.221Z,74.25
2018-12-27T07:01:49.210Z,73.87
2018-12-27T07:02:49.198Z,74.49
2018-12-27T07:03:49.187Z,74.70
2018-12-27T07:04:49.264Z,74.70
2018-12-27T07:05:49.166Z,74.98
2018-12-27T07:06:49.155Z,74.87
2018-12-27T07:07:49.142Z,75.49
2018-12-27T07:08:49.134Z,75.59
2018-12-27T07:09:49.120Z,75.59
2018-12-27T07:10:49.114Z,74.56
2018-12-27T07:11:49.097Z,75.59
2018-12-27T07:12:49.088Z,75.73
2018-12-27T07:13:49.074Z,75.93
2018-12-27T07:14:49.062Z,74.60
2018-12-27T07:15:49.054Z,73.77
2018-12-27T07:16:49.039Z,74.29
2018-12-27T07:17:49.025Z,73.57
2018-12-27T07:18:49.024Z,73.46
2018-12-27T07:19:49.017Z,73.77
2018-12-27T07:20:48.994Z,73.26
2018-12-27T07:21:48.982Z,72.57
2018-12-27T07:22:48.972Z,72.22
2018-12-27T07:23:48.958Z,71.61
2018-12-27T07:24:48.951Z,70.68
2018-12-27T07:25:48.936Z,72.12
2018-12-27T07:26:48.925Z,70.68
2018-12-27T07:27:48.915Z,70.06
2018-12-27T07:28:48.908Z,70.41
2018-12-27T07:29:48.890Z,71.23
2018-12-27T07:30:48.878Z,72.05
2018-12-27T07:31:48.867Z,71.02
2018-12-27T07:32:48.863Z,71.99
2018-12-27T07:33:48.846Z,71.74
2018-12-27T07:34:56.245Z,70.71
2018-12-27T07:36:13.300Z,70.64
2018-12-27T07:37:13.287Z,72.39
2018-12-27T07:38:13.291Z,71.67
2018-12-27T07:39:13.265Z,71.67
2018-12-27T07:40:13.253Z,71.78
2018-12-27T07:41:13.241Z,71.99
2018-12-27T07:42:13.230Z,71.16
2018-12-27T07:43:13.219Z,71.67
2018-12-27T07:44:13.207Z,71.78
2018-12-27T07:45:13.203Z,71.99
2018-12-27T07:46:13.187Z,72.29
2018-12-27T07:47:13.174Z,72.39
2018-12-27T07:48:13.162Z,72.29
2018-12-27T07:49:13.149Z,71.99
2018-12-27T07:50:13.141Z,72.26
2018-12-27T07:51:13.129Z,72.57
2018-12-27T07:52:13.120Z,71.78
2018-12-27T07:53:13.111Z,72.39
2018-12-27T07:54:13.094Z,73.43
2018-12-27T07:55:13.089Z,73.63
2018-12-27T07:56:13.069Z,73.74
2018-12-27T07:57:13.059Z,73.32
2018-12-27T07:58:13.052Z,73.43
2018-12-27T07:59:13.035Z,74.05
2018-12-27T08:00:13.097Z,74.15
2018-12-27T08:01:13.013Z,73.95
2018-12-27T08:02:13.001Z,74.12
2018-12-27T08:03:12.989Z,73.91
2018-12-27T08:04:12.979Z,74.43
2018-12-27T08:05:12.969Z,75.04
2018-12-27T08:06:12.957Z,74.12
2018-12-27T08:07:12.945Z,74.01
2018-12-27T08:08:12.933Z,73.60
2018-12-27T08:09:12.928Z,73.60
2018-12-27T08:10:12.925Z,73.70
2018-12-27T08:11:12.897Z,73.98
2018-12-27T08:12:12.893Z,74.49
2018-12-27T08:13:12.881Z,74.39
2018-12-27T08:14:12.867Z,74.18
2018-12-27T08:15:12.859Z,74.60
2018-12-27T08:16:12.842Z,74.70
2018-12-27T08:17:12.858Z,74.49
2018-12-27T08:18:12.819Z,74.29
2018-12-27T08:19:12.810Z,74.90
2018-12-27T08:20:12.795Z,74.60
2018-12-27T08:21:12.823Z,73.87
2018-12-27T08:22:12.772Z,74.90
2018-12-27T08:23:12.775Z,73.80
2018-12-27T08:24:12.750Z,74.90
2018-12-27T08:25:12.739Z,75.15
2018-12-27T08:26:12.731Z,75.25
2018-12-27T08:27:12.715Z,76.08
2018-12-27T08:28:12.705Z,75.97
2018-12-27T08:29:12.692Z,76.08
2018-12-27T08:30:12.683Z,75.87
2018-12-27T08:31:12.675Z,75.45
2018-12-27T08:32:12.659Z,75.97
2018-12-27T08:33:12.649Z,75.76
2018-12-27T08:34:12.637Z,75.66
2018-12-27T08:35:12.625Z,76.38
2018-12-27T08:36:12.614Z,76.28
2018-12-27T08:37:12.603Z,76.73
2018-12-27T08:38:12.590Z,77.21
2018-12-27T08:39:12.579Z,77.31
2018-12-27T08:40:12.574Z,77.11
2018-12-27T08:41:12.556Z,76.90
2018-12-27T08:42:12.754Z,76.80
2018-12-27T08:43:12.535Z,77.52
2018-12-27T08:44:12.522Z,77.41
2018-12-27T08:45:12.514Z,77.31
2018-12-27T08:46:12.504Z,77.52
2018-12-27T08:47:12.487Z,77.31
2018-12-27T08:48:12.476Z,77.38
2018-12-27T08:49:12.466Z,77.17
2018-12-27T08:50:12.455Z,77.62
2018-12-27T08:51:12.443Z,77.69
2018-12-27T08:52:12.432Z,77.28
2018-12-27T08:53:12.420Z,76.97
2018-12-27T08:54:12.409Z,77.17
2018-12-27T08:55:12.396Z,77.03
2018-12-27T08:56:12.387Z,77.03
2018-12-27T08:57:12.376Z,77.34
2018-12-27T08:58:12.363Z,77.75
2018-12-27T08:59:12.352Z,77.34
2018-12-27T09:00:12.341Z,77.45
2018-12-27T09:01:12.331Z,77.24
2018-12-27T09:02:12.319Z,77.45
2018-12-27T09:03:12.311Z,77.14
2018-12-27T09:04:12.297Z,77.14
2018-12-27T09:05:18.716Z,77.34
2018-12-27T09:06:36.751Z,77.24
2018-12-27T09:07:36.738Z,77.55
2018-12-27T09:08:36.731Z,78.27
2018-12-27T09:09:36.722Z,77.65
2018-12-27T09:10:36.706Z,78.37
2018-12-27T09:11:36.696Z,78.07
2018-12-27T09:12:36.690Z,78.27
2018-12-27T09:13:36.675Z,78.17
2018-12-27T09:14:36.660Z,78.17
2018-12-27T09:15:36.654Z,78.47
2018-12-27T09:16:36.638Z,78.07
2018-12-27T09:17:36.631Z,78.58
2018-12-27T09:18:36.654Z,78.79
2018-12-27T09:19:36.614Z,79.30
2018-12-27T09:20:36.594Z,78.99
2018-12-27T09:21:36.582Z,79.30
2018-12-27T09:22:36.571Z,78.79
2018-12-27T09:23:36.564Z,79.03
2018-12-27T09:24:36.568Z,79.65
2018-12-27T09:25:36.577Z,80.02
2018-12-27T09:26:36.579Z,79.75
2018-12-27T09:27:36.522Z,80.12
2018-12-27T09:28:36.519Z,79.30
2018-12-27T09:29:36.522Z,80.23
2018-12-27T09:30:36.526Z,79.71
2018-12-27T09:31:36.531Z,80.12
2018-12-27T09:32:36.460Z,79.61
2018-12-27T09:33:36.452Z,80.23
2018-12-27T09:34:36.442Z,80.12
2018-12-27T09:35:36.427Z,79.51
2018-12-27T09:36:36.414Z,78.99
2018-12-27T09:37:36.402Z,78.58
2018-12-27T09:38:36.391Z,79.10
2018-12-27T09:39:36.386Z,80.26
2018-12-27T09:40:36.370Z,80.02
2018-12-27T09:41:36.359Z,79.65
2018-12-27T09:42:36.347Z,80.26
2018-12-27T09:43:36.343Z,80.05
2018-12-27T09:44:36.324Z,80.16
2018-12-27T09:45:36.311Z,81.19
2018-12-27T09:46:36.307Z,80.47
2018-12-27T09:47:36.290Z,80.37
2018-12-27T09:48:36.280Z,80.57
2018-12-27T09:49:36.274Z,80.78
2018-12-27T09:50:36.260Z,80.47
2018-12-27T09:51:36.246Z,80.88
2018-12-27T09:52:36.235Z,80.43
2018-12-27T09:53:36.226Z,79.85
2018-12-27T09:54:36.210Z,80.43
2018-12-27T09:55:36.200Z,80.02
2018-12-27T09:56:36.190Z,80.43
2018-12-27T09:57:36.182Z,80.02
2018-12-27T09:58:36.168Z,80.84
2018-12-27T09:59:36.160Z,80.74
2018-12-27T10:00:36.143Z,80.02
2018-12-27T10:01:36.132Z,80.23
2018-12-27T10:02:36.126Z,79.92
2018-12-27T10:03:36.110Z,79.40
2018-12-27T10:04:36.099Z,79.71
2018-12-27T10:05:36.087Z,80.02
2018-12-27T10:06:36.075Z,80.02
2018-12-27T10:07:36.065Z,79.92
2018-12-27T10:08:36.060Z,80.12
2018-12-27T10:09:36.041Z,79.71
2018-12-27T10:10:36.041Z,79.82
2018-12-27T10:11:36.022Z,79.98
2018-12-27T10:12:36.014Z,80.40
2018-12-27T10:13:36.005Z,79.78
2018-12-27T10:14:35.989Z,79.57
2018-12-27T10:15:35.982Z,79.98
2018-12-27T10:16:35.970Z,79.88
2018-12-27T10:17:35.953Z,79.57
2018-12-27T10:18:35.941Z,79.57
2018-12-27T10:19:35.929Z,78.82
2018-12-27T10:20:35.918Z,78.96
2018-12-27T10:21:35.906Z,78.54
2018-12-27T10:22:35.901Z,79.26
2018-12-27T10:23:35.885Z,78.75
2018-12-27T10:24:35.876Z,79.22
2018-12-27T10:25:35.863Z,78.82
2018-12-27T10:26:35.852Z,78.61
2018-12-27T10:27:35.846Z,78.44
2018-12-27T10:28:35.834Z,78.82
2018-12-27T10:29:35.820Z,78.64
2018-12-27T10:30:35.806Z,79.68
2018-12-27T10:31:35.796Z,79.06
2018-12-27T10:32:35.786Z,78.96
2018-12-27T10:33:35.774Z,79.98
2018-12-27T10:34:35.761Z,80.09
2018-12-27T10:35:41.129Z,79.40
2018-12-27T10:36:35.739Z,79.92
2018-12-27T10:37:35.728Z,79.40
2018-12-27T10:38:35.723Z,79.92
2018-12-27T10:39:35.706Z,80.12
2018-12-27T10:40:35.698Z,81.26
2018-12-27T10:41:35.689Z,80.60
2018-12-27T10:42:35.678Z,80.43
2018-12-27T10:43:35.663Z,80.02
2018-12-27T10:44:35.653Z,79.82
2018-12-27T10:45:35.641Z,79.61
2018-12-27T10:46:35.635Z,80.23
2018-12-27T10:47:35.622Z,80.12
2018-12-27T10:48:35.609Z,80.33
2018-12-27T10:49:35.597Z,80.19
2018-12-27T10:50:35.586Z,79.68
2018-12-27T10:51:35.573Z,80.12
2018-12-27T10:52:35.562Z,80.43
2018-12-27T10:53:35.557Z,80.43
2018-12-27T10:54:35.540Z,80.84
2018-12-27T10:55:35.532Z,81.05
2018-12-27T10:56:35.519Z,81.15
2018-12-27T10:57:35.508Z,81.15
2018-12-27T10:58:35.501Z,81.15
2018-12-27T10:59:35.485Z,80.54
2018-12-27T11:00:35.474Z,80.40
2018-12-27T11:01:35.471Z,81.01
2018-12-27T11:02:35.452Z,79.88
2018-12-27T11:03:35.445Z,80.29
2018-12-27T11:04:35.430Z,79.57
2018-12-27T11:05:35.418Z,79.78
2018-12-27T11:06:35.407Z,79.37
2018-12-27T11:07:35.399Z,79.74
2018-12-27T11:08:35.385Z,79.78
2018-12-27T11:09:35.375Z,79.74
2018-12-27T11:10:35.361Z,79.64
2018-12-27T11:11:35.351Z,79.94
2018-12-27T11:12:35.340Z,80.15
2018-12-27T11:13:35.334Z,79.80
2018-12-27T11:14:35.319Z,79.50
2018-12-27T11:15:35.308Z,79.19
2018-12-27T11:16:35.301Z,79.19
2018-12-27T11:17:35.285Z,78.88
2018-12-27T11:18:35.275Z,78.88
2018-12-27T11:19:35.262Z,78.68
2018-12-27T11:20:35.251Z,78.57
2018-12-27T11:21:35.246Z,78.68
2018-12-27T11:22:35.233Z,78.99
2018-12-27T11:23:35.220Z,78.99
2018-12-27T11:24:35.213Z,78.99
2018-12-27T11:25:35.204Z,79.02
2018-12-27T11:26:35.185Z,78.64
2018-12-27T11:27:35.175Z,78.78
2018-12-27T11:28:35.167Z,79.19
2018-12-27T11:29:35.156Z,78.88
2018-12-27T11:30:35.142Z,79.74
2018-12-27T11:31:35.133Z,79.22
2018-12-27T11:32:35.118Z,78.78
2018-12-27T11:33:35.112Z,78.99
2018-12-27T11:34:35.097Z,79.40
2018-12-27T11:35:35.087Z,79.08
2018-12-27T11:36:35.076Z,78.88
2018-12-27T11:37:35.065Z,79.19
2018-12-27T11:38:35.055Z,79.08
2018-12-27T11:39:35.042Z,78.99
2018-12-27T11:40:35.034Z,78.78
2018-12-27T11:41:35.024Z,78.88
2018-12-27T11:42:35.008Z,78.54
2018-12-27T11:43:34.998Z,78.64
2018-12-27T11:44:34.987Z,79.05
2018-12-27T11:45:34.979Z,78.57
2018-12-27T11:46:34.964Z,78.95
2018-12-27T11:47:34.951Z,78.85
2018-12-27T11:48:34.940Z,78.95
2018-12-27T11:49:34.930Z,78.64
2018-12-27T11:50:34.928Z,78.85
2018-12-27T11:51:34.907Z,78.33
2018-12-27T11:52:34.903Z,78.85
2018-12-27T11:53:34.892Z,78.54
2018-12-27T11:54:34.899Z,78.54
2018-12-27T11:55:34.863Z,78.57
2018-12-27T11:56:34.861Z,78.85
2018-12-27T11:57:34.842Z,78.57
2018-12-27T11:58:34.830Z,78.74
2018-12-27T11:59:34.819Z,79.08
2018-12-27T12:00:34.810Z,79.29
2018-12-27T12:01:34.808Z,79.40
2018-12-27T12:02:34.790Z,79.46
2018-12-27T12:03:34.774Z,79.91
2018-12-27T12:04:34.762Z,79.80
2018-12-27T12:05:34.756Z,79.80
2018-12-27T12:06:34.742Z,79.70
2018-12-27T12:07:34.729Z,79.60
2018-12-27T12:08:34.730Z,80.01
2018-12-27T12:09:34.708Z,80.32
2018-12-27T12:10:34.698Z,79.40
2018-12-27T12:11:34.695Z,79.70
2018-12-27T12:12:34.680Z,79.60
2018-12-27T12:13:34.666Z,79.60
2018-12-27T12:14:34.653Z,80.32
2018-12-27T12:15:34.645Z,80.32
2018-12-27T12:16:34.635Z,80.52
2018-12-27T12:17:34.620Z,80.32
2018-12-27T12:18:34.615Z,80.84
2018-12-27T12:19:34.601Z,81.04
2018-12-27T12:20:35.721Z,80.73
2018-12-27T12:21:34.582Z,80.87
2018-12-27T12:22:34.570Z,80.84
2018-12-27T12:23:34.559Z,80.94
2018-12-27T12:24:34.542Z,81.35
2018-12-27T12:25:34.530Z,81.14
2018-12-27T12:26:34.525Z,80.94
2018-12-27T12:27:34.512Z,81.25
2018-12-27T12:28:34.502Z,81.04
2018-12-27T12:29:34.492Z,81.25
2018-12-27T12:30:34.477Z,81.35
2018-12-27T12:31:34.470Z,81.25
2018-12-27T12:32:34.451Z,81.25
2018-12-27T12:33:34.450Z,81.66
2018-12-27T12:34:34.430Z,81.70
2018-12-27T12:35:34.427Z,81.97
2018-12-27T12:36:34.413Z,81.66
2018-12-27T12:37:34.404Z,81.97
2018-12-27T12:38:34.388Z,81.14
2018-12-27T12:39:34.375Z,81.35
2018-12-27T12:40:35.577Z,81.14
2018-12-27T12:41:34.352Z,81.14
2018-12-27T12:42:34.341Z,81.42
2018-12-27T12:43:34.328Z,81.04
2018-12-27T12:44:34.325Z,81.10
2018-12-27T12:45:34.311Z,81.04
2018-12-27T12:46:34.297Z,80.94
2018-12-27T12:47:34.286Z,81.25
2018-12-27T12:48:34.276Z,81.10
2018-12-27T12:49:34.263Z,80.94
2018-12-27T12:50:34.250Z,81.42
2018-12-27T12:51:34.240Z,80.94
2018-12-27T12:52:34.230Z,81.56
2018-12-27T12:53:34.218Z,81.56